Time;durP1;ratioP1;P1;durP2;ratioP2;P2;SDS_P1;SDS_P2;PMS_P1;PMS_P2;Temp;Humidity;BMP_temperature;BMP_pressure;BME280_temperature;BME280_humidity;BME280_pressure;Samples;Min_cycle;Max_cycle;Signal;HPM_P1;HPM_P2
2023/10/12 00:03:16;;;;;;;;;;;23.20;51.00;;;22.46;52.58;100495.16;12291218;19;19915;-85
2023/10/12 00:07:31;;;;;;;;;;;23.20;51.00;;;22.48;52.97;100499.31;12290302;19;19923;-85
2023/10/12 00:11:37;;;;;;;;;;;23.20;50.90;;;22.50;52.62;100507.13;12288607;19;19925;-85
2023/10/12 00:15:45;;;;;;;;;;;23.20;50.90;;;22.41;52.48;100498.31;12290795;19;19926;-84
2023/10/12 00:19:47;;;;;;;;;;;23.20;50.80;;;22.43;52.52;100498.16;12294264;19;19925;-84
2023/10/12 00:23:51;;;;;;;;;;;23.20;50.80;;;22.46;52.67;100500.47;12299301;19;19915;-85
2023/10/12 00:27:53;;;;;;;;;;;23.20;50.90;;;22.47;52.78;100508.31;12298160;19;19919;-85
2023/10/12 00:31:57;;;;;;;;;;;23.20;51.00;;;22.49;52.49;100518.75;12300881;19;19919;-84
2023/10/12 00:36:19;;;;;;;;;;;23.20;51.00;;;22.36;52.44;100487.34;12299295;19;19918;-85
2023/10/12 00:40:32;;;;;;;;;;;23.20;50.90;;;22.34;52.57;100475.22;12295529;19;19915;-85
2023/10/12 00:44:35;;;;;;;;;;;23.20;50.90;;;22.46;52.62;100495.97;12294145;19;19949;-83
2023/10/12 00:48:39;;;;;;;;;;;23.20;51.00;;;22.37;52.65;100478.38;12291260;19;19927;-84
2023/10/12 00:52:54;;;;;;;;;;;23.20;51.00;;;22.46;52.48;100490.66;12297431;19;19929;-85
2023/10/12 00:57:01;;;;;;;;;;;23.30;51.00;;;22.47;52.90;100492.34;12296361;19;20271;-84
2023/10/12 01:01:04;;;;;;;;;;;23.20;50.90;;;22.51;52.86;100503.47;12291623;19;19963;-83
2023/10/12 01:05:06;;;;;;;;;;;23.20;50.80;;;22.48;52.81;100496.66;12295247;19;19922;-84
2023/10/12 01:09:18;;;;;;;;;;;23.20;50.80;;;22.45;52.40;100489.00;12293426;19;19911;-85
2023/10/12 01:13:20;;;;;;;;;;;23.30;50.80;;;22.39;52.45;100484.38;12295089;19;19943;-84
2023/10/12 01:17:29;;;;;;;;;;;23.20;50.90;;;22.50;52.42;100504.47;12295161;19;19922;-85
2023/10/12 01:21:35;;;;;;;;;;;23.20;50.90;;;22.50;52.40;100502.63;12292925;19;19911;-86
2023/10/12 01:25:40;;;;;;;;;;;23.20;50.80;;;22.49;52.56;100492.16;12294437;19;19911;-85
2023/10/12 01:29:41;;;;;;;;;;;23.20;50.70;;;22.46;52.60;100490.66;12289925;19;19915;-85
2023/10/12 01:33:43;;;;;;;;;;;23.20;50.80;;;22.46;52.39;100490.66;12291842;19;19915;-84
2023/10/12 01:37:48;;;;;;;;;;;23.20;50.70;;;22.25;52.72;100461.06;12292797;19;19910;-84
2023/10/12 01:41:57;;;;;;;;;;;23.20;50.70;;;22.45;52.64;100491.66;12286530;19;19915;-83
2023/10/12 01:46:06;;;;;;;;;;;23.20;50.70;;;22.44;52.38;100481.19;12290796;19;19918;-84
2023/10/12 01:50:07;;;;;;;;;;;23.20;50.70;;;22.38;52.73;100463.22;12291435;19;19918;-85
2023/10/12 01:54:12;;;;;;;;;;;23.20;50.70;;;22.46;52.44;100476.53;12293091;19;19919;-84
2023/10/12 01:58:21;;;;;;;;;;;23.30;50.60;;;22.46;52.31;100472.03;12290854;19;19923;-85
2023/10/12 02:02:22;;;;;;;;;;;23.30;50.70;;;22.50;52.64;100476.03;12288636;19;19919;-86
2023/10/12 02:06:28;;;;;;;;;;;23.30;50.70;;;22.42;52.40;100472.56;12292867;19;19926;-86
2023/10/12 02:10:40;;;;;;;;;;;23.30;50.60;;;22.48;52.43;100496.66;12290349;19;19911;-84
2023/10/12 02:14:42;;;;;;;;;;;23.30;50.60;;;22.46;52.23;100500.47;12290738;19;19919;-84
2023/10/12 02:18:47;;;;;;;;;;;23.20;50.50;;;22.39;52.51;100489.69;12290234;19;19915;-84
2023/10/12 02:22:52;;;;;;;;;;;23.20;50.50;;;22.43;52.08;100504.31;12288862;19;19919;-84
2023/10/12 02:26:54;;;;;;;;;;;23.20;50.70;;;22.39;52.43;100505.66;12291720;19;20270;-85
2023/10/12 02:30:56;;;;;;;;;;;23.20;50.60;;;22.37;52.26;100497.00;12289027;19;19929;-85
2023/10/12 02:35:00;;;;;;;;;;;23.20;50.50;;;22.26;52.33;100487.53;12291708;19;19911;-85
2023/10/12 02:39:10;;;;;;;;;;;23.10;50.50;;;22.37;52.07;100506.81;12288453;19;19933;-85
2023/10/12 02:43:12;;;;;;;;;;;23.10;50.50;;;22.34;52.28;100507.97;12287005;19;19955;-84
2023/10/12 02:47:23;;;;;;;;;;;23.10;50.50;;;22.37;52.35;100517.47;12286220;19;19940;-84
2023/10/12 02:51:25;;;;;;;;;;;23.10;50.40;;;22.31;52.26;100503.00;12288435;19;19914;-84
2023/10/12 02:55:33;;;;;;;;;;;23.10;50.50;;;22.29;52.47;100504.97;12286591;19;19919;-84
2023/10/12 02:59:38;;;;;;;;;;;23.10;50.40;;;22.30;52.43;100517.28;12286443;19;19952;-86
2023/10/12 03:03:48;;;;;;;;;;;23.10;50.40;;;22.24;52.06;100516.09;12290511;19;19929;-83
2023/10/12 03:07:49;;;;;;;;;;;23.00;50.30;;;22.27;52.13;100528.25;12288487;19;19915;-84
2023/10/12 03:11:56;;;;;;;;;;;23.00;50.40;;;22.18;52.00;100516.78;12292488;19;19943;-84
2023/10/12 03:15:59;;;;;;;;;;;23.00;50.40;;;22.21;52.36;100527.09;12288530;19;19911;-85
2023/10/12 03:20:19;;;;;;;;;;;23.00;50.40;;;22.06;52.28;100515.38;12284387;19;19921;-84
2023/10/12 03:24:21;;;;;;;;;;;23.00;50.40;;;22.20;52.15;100538.72;12289687;19;19915;-84
2023/10/12 03:28:43;;;;;;;;;;;23.00;50.50;;;22.19;52.00;100539.72;12287529;19;19919;-86
2023/10/12 03:32:45;;;;;;;;;;;23.00;50.60;;;22.23;51.97;100565.00;12289519;19;19940;-85
2023/10/12 03:36:50;;;;;;;;;;;23.00;50.70;;;22.09;52.34;100545.16;12291214;19;19955;-85
2023/10/12 03:41:46;;;;;;;;;;;22.90;50.50;;;22.01;52.08;100549.66;12289236;19;19915;-83
2023/10/12 03:54:11;;;;;;;;;;;22.70;50.60;;;21.79;52.33;100564.38;12296924;19;19919;-85
2023/10/12 03:58:15;;;;;;;;;;;22.60;50.70;;;21.74;52.04;100572.84;12300663;19;19914;-83
2023/10/12 04:02:17;;;;;;;;;;;22.60;50.60;;;21.76;52.20;100588.63;12295697;19;19911;-83
2023/10/12 04:06:24;;;;;;;;;;;22.50;50.70;;;21.72;52.26;100587.28;12299674;19;19922;-85
2023/10/12 04:15:06;;;;;;;;;;;22.40;50.90;;;21.54;52.29;100605.97;12296328;19;19922;-84
2023/10/12 04:19:08;;;;;;;;;;;22.30;51.10;;;21.40;52.03;100607.41;12288288;19;19915;-84
2023/10/12 04:27:44;;;;;;;;;;;22.10;51.30;;;21.35;52.11;100617.63;12296947;19;19926;-84
2023/10/12 04:39:56;;;;;;;;;;;21.90;51.50;;;21.21;52.19;100614.56;12295274;19;20607;-85
2023/10/12 04:44:17;;;;;;;;;;;21.90;51.70;;;21.29;52.48;100628.91;12295868;19;19922;-84
2023/10/12 04:48:21;;;;;;;;;;;21.90;51.80;;;21.24;52.33;100620.56;12295947;19;19931;-84
2023/10/12 04:52:32;;;;;;;;;;;21.80;51.80;;;21.13;52.61;100611.84;12296226;19;19927;-84
2023/10/12 04:56:36;;;;;;;;;;;21.80;51.80;;;21.17;52.09;100620.34;12284087;19;20345;-84
2023/10/12 05:00:55;;;;;;;;;;;21.80;52.30;;;21.11;52.29;100621.78;12281166;19;19935;-84
2023/10/12 05:08:57;;;;;;;;;;;21.70;52.00;;;20.99;51.88;100625.72;12278972;19;19922;-82
2023/10/12 05:13:05;;;;;;;;;;;21.60;52.10;;;20.98;52.42;100637.28;12281021;19;19911;-84
2023/10/12 05:17:08;;;;;;;;;;;21.60;52.10;;;21.02;52.42;100654.59;12289347;19;19942;-85
2023/10/12 05:21:10;;;;;;;;;;;21.60;52.20;;;21.01;52.52;100658.25;12279360;19;19915;-83
2023/10/12 05:25:12;;;;;;;;;;;21.60;52.30;;;20.99;52.44;100670.84;12285344;19;20363;-83
2023/10/12 05:37:48;;;;;;;;;;;21.50;52.30;;;20.74;52.51;100654.72;12277722;19;20346;-84
2023/10/12 05:41:56;;;;;;;;;;;21.50;52.40;;;20.88;52.60;100671.09;12276629;19;19940;-83
2023/10/12 05:46:10;;;;;;;;;;;21.50;52.40;;;20.87;52.86;100672.06;12280989;19;19926;-84
2023/10/12 05:50:15;;;;;;;;;;;21.50;52.50;;;20.86;52.53;100681.84;12279643;19;19977;-84
2023/10/12 05:54:20;;;;;;;;;;;21.40;52.50;;;20.64;52.43;100639.84;12268676;19;19923;-83
2023/10/12 05:58:22;;;;;;;;;;;21.40;52.60;;;20.73;52.34;100666.28;12276390;19;19942;-84
2023/10/12 06:02:27;;;;;;;;;;;21.40;52.60;;;20.71;52.45;100670.09;12273428;19;19919;-83
2023/10/12 06:06:34;;;;;;;;;;;21.30;52.60;;;20.63;52.72;100673.53;12282684;19;19915;-83
2023/10/12 06:10:40;;;;;;;;;;;21.20;52.60;;;20.64;52.61;100693.75;12268581;19;19919;-83
2023/10/12 06:14:52;;;;;;;;;;;21.30;52.70;;;20.55;52.61;100668.13;12260950;19;19914;-82
2023/10/12 06:18:54;;;;;;;;;;;21.20;52.80;;;20.58;52.61;100702.31;12251659;19;19930;-83
2023/10/12 06:22:56;;;;;;;;;;;21.20;52.80;;;20.52;52.60;100694.91;12251862;19;19983;-82
2023/10/12 06:26:58;;;;;;;;;;;21.10;52.90;;;20.52;52.56;100689.59;12252983;19;19930;-82
2023/10/12 06:31:01;;;;;;;;;;;21.10;53.00;;;20.44;52.88;100702.78;12246964;19;20261;-84
2023/10/12 06:47:41;;;;;;;;;;;20.90;53.10;;;20.23;53.00;100729.59;12262898;19;19919;-84
2023/10/12 06:51:43;;;;;;;;;;;20.90;53.00;;;20.21;53.19;100732.38;12269917;19;19960;-85
2023/10/12 06:55:56;;;;;;;;;;;20.90;53.20;;;20.06;53.31;100732.03;12265796;19;19914;-84
2023/10/12 07:04:00;;;;;;;;;;;20.80;53.30;;;19.80;52.85;100713.28;12245130;19;20333;-84
2023/10/12 07:08:07;;;;;;;;;;;20.80;53.30;;;20.15;53.37;100793.13;12246766;19;19918;-84
2023/10/12 07:12:11;;;;;;;;;;;20.80;53.40;;;20.02;53.12;100757.16;12247156;19;19956;-84
2023/10/12 07:16:16;;;;;;;;;;;20.70;53.30;;;19.98;53.45;100786.75;12245526;19;19918;-84
2023/10/12 07:24:38;;;;;;;;;;;20.60;53.60;;;19.98;53.19;100800.00;12252451;19;19926;-83
2023/10/12 07:28:41;;;;;;;;;;;20.70;53.60;;;19.92;53.17;100809.34;12264227;19;19919;-83
2023/10/12 07:32:55;;;;;;;;;;;20.60;53.90;;;19.93;53.56;100831.41;12257812;19;19926;-83
2023/10/12 07:36:58;;;;;;;;;;;20.60;53.70;;;19.81;53.53;100818.31;12263243;19;19927;-82
2023/10/12 07:41:00;;;;;;;;;;;20.50;53.90;;;19.78;53.61;100817.78;12261466;19;19930;-83
2023/10/12 07:45:06;;;;;;;;;;;20.50;53.80;;;19.79;53.44;100817.59;12263547;19;19946;-82
2023/10/12 07:49:57;;;;;;;;;;;20.50;53.90;;;19.81;53.54;100836.03;12260347;19;19922;-83
2023/10/12 07:53:29;;;;;;;;;;;20.50;54.00;;;19.84;53.46;100852.47;12260483;19;20003;-82
2023/10/12 07:57:31;;;;;;;;;;;20.50;54.10;;;19.79;53.86;100841.47;12260152;19;19907;-82
2023/10/12 08:09:47;;;;;;;;;;;20.50;54.10;;;19.81;53.65;100862.53;12262732;19;19921;-82
2023/10/12 08:13:48;;;;;;;;;;;20.50;54.10;;;19.56;53.59;100830.31;12267860;19;19940;-82
2023/10/12 08:18:08;;;;;;;;;;;20.50;54.30;;;19.70;54.11;100873.28;12266631;19;19919;-82
2023/10/12 08:22:26;;;;;;;;;;;20.40;54.20;;;19.64;54.02;100872.84;12261260;19;19987;-83
2023/10/12 08:30:48;;;;;;;;;;;20.40;54.20;;;19.67;53.87;100948.59;12260074;19;19918;-82
2023/10/12 08:39:08;;;;;;;;;;;20.30;54.50;;;19.32;53.95;100955.19;12266411;19;20043;-82
2023/10/12 08:43:10;;;;;;;;;;;20.20;53.80;;;19.23;53.91;100977.19;12254787;19;19919;-82
2023/10/12 08:47:23;;;;;;;;;;;20.00;53.50;;;19.08;54.11;100958.19;12255641;19;19918;-81
2023/10/12 08:51:29;;;;;;;;;;;19.90;53.50;;;19.03;53.85;100981.56;12249803;19;19933;-82
2023/10/12 08:55:31;;;;;;;;;;;19.80;53.60;;;18.79;53.74;100973.94;12252352;19;20006;-82
2023/10/12 08:59:38;;;;;;;;;;;19.60;53.40;;;18.70;53.91;100986.13;12252568;19;19922;-82
2023/10/12 09:03:44;;;;;;;;;;;19.60;53.50;;;18.77;54.10;101015.59;12245650;19;19941;-81
2023/10/12 09:07:53;;;;;;;;;;;19.40;53.60;;;18.60;54.12;101009.03;12248157;19;19938;-81
2023/10/12 09:11:59;;;;;;;;;;;19.40;53.60;;;18.55;53.82;101006.78;12244217;19;19923;-82
2023/10/12 09:16:07;;;;;;;;;;;19.30;54.30;;;18.49;53.90;101031.09;12247073;19;20278;-82
2023/10/12 09:20:28;;;;;;;;;;;19.20;53.70;;;18.29;54.06;101021.34;12249421;19;19925;-82
2023/10/12 09:24:35;;;;;;;;;;;19.10;53.50;;;18.32;54.00;101044.91;12250183;19;19923;-82
2023/10/12 09:33:05;;;;;;;;;;;18.90;53.50;;;18.22;53.96;101034.22;12253455;19;19949;-82
2023/10/12 09:37:06;;;;;;;;;;;18.90;53.60;;;18.22;54.03;101049.25;12248230;19;19918;-83
2023/10/12 09:41:14;;;;;;;;;;;18.80;53.40;;;18.14;54.05;101048.06;12248441;19;19915;-82
2023/10/12 09:45:19;;;;;;;;;;;18.80;53.40;;;18.07;54.02;101031.06;12248455;19;20254;-83
2023/10/12 09:49:23;;;;;;;;;;;18.80;53.50;;;18.04;54.23;101028.66;12250203;19;19927;-82
2023/10/12 09:53:35;;;;;;;;;;;18.70;53.40;;;18.13;54.23;101045.56;12244417;19;20407;-82
2023/10/12 09:57:40;;;;;;;;;;;18.70;53.50;;;18.07;54.26;101038.97;12250803;19;19958;-83
2023/10/12 10:05:52;;;;;;;;;;;18.80;54.00;;;18.18;54.32;101045.19;12253289;19;19982;-83
2023/10/12 10:09:59;;;;;;;;;;;18.80;53.90;;;18.17;54.24;101040.88;12252532;19;20119;-83
2023/10/12 10:14:03;;;;;;;;;;;18.80;53.60;;;18.10;54.21;101017.59;12255803;19;19922;-83
2023/10/12 10:18:05;;;;;;;;;;;18.80;53.70;;;18.25;54.33;101039.25;12252666;19;20277;-83
2023/10/12 10:22:11;;;;;;;;;;;18.90;53.70;;;18.28;54.40;101036.38;12246606;19;19957;-83
2023/10/12 10:26:23;;;;;;;;;;;18.90;53.70;;;18.24;54.39;101021.72;12248148;19;19924;-83
2023/10/12 10:30:26;;;;;;;;;;;18.90;53.70;;;18.33;54.45;101035.97;12247659;19;19918;-83
2023/10/12 10:34:27;;;;;;;;;;;19.00;53.80;;;18.35;54.25;101040.19;12248100;19;19919;-83
2023/10/12 10:38:32;;;;;;;;;;;19.00;53.70;;;18.36;54.42;101043.66;12247000;19;20349;-83
2023/10/12 10:42:36;;;;;;;;;;;19.10;53.70;;;18.35;54.26;101034.06;12247429;19;19911;-84
2023/10/12 10:46:43;;;;;;;;;;;19.10;53.70;;;18.31;54.22;101028.19;12253025;19;20267;-84
2023/10/12 10:50:50;;;;;;;;;;;19.10;53.70;;;18.25;54.58;101020.75;12248104;19;19919;-85
2023/10/12 10:55:11;;;;;;;;;;;19.10;53.70;;;18.37;54.33;101028.66;12249673;19;20320;-85
2023/10/12 10:59:14;;;;;;;;;;;19.10;53.70;;;18.40;54.26;101038.97;12247935;19;19914;-82
2023/10/12 11:03:16;;;;;;;;;;;19.20;53.70;;;18.35;54.48;101021.66;12241218;19;20341;-84
2023/10/12 11:07:17;;;;;;;;;;;19.20;53.70;;;18.40;54.50;101036.34;12250437;19;19918;-83
2023/10/12 11:11:37;;;;;;;;;;;19.20;53.70;;;18.45;54.69;101042.91;12247518;19;19943;-83
2023/10/12 11:15:39;;;;;;;;;;;19.20;53.70;;;18.34;54.75;101029.75;12250818;19;20272;-82
2023/10/12 11:19:41;;;;;;;;;;;19.20;53.60;;;18.46;54.46;101041.09;12245910;19;19919;-84
2023/10/12 11:23:44;;;;;;;;;;;19.20;53.60;;;18.39;54.38;101032.84;12243426;19;19926;-83
2023/10/12 11:27:46;;;;;;;;;;;19.20;53.60;;;18.43;54.59;101026.31;12248907;19;19926;-83
2023/10/12 11:32:16;;;;;;;;;;;19.30;53.60;;;18.38;54.68;101020.56;12251495;19;19953;-84
2023/10/12 11:36:19;;;;;;;;;;;19.30;53.60;;;18.42;54.73;101029.94;12254829;19;20387;-82
2023/10/12 11:40:30;;;;;;;;;;;19.30;53.60;;;18.46;54.66;101030.53;12255536;19;19911;-82
2023/10/12 11:44:33;;;;;;;;;;;19.30;53.70;;;18.49;54.70;101023.16;12251704;19;20548;-83
2023/10/12 11:48:34;;;;;;;;;;;19.30;53.70;;;18.55;54.94;101033.25;12251716;19;19918;-82
2023/10/12 11:52:39;;;;;;;;;;;19.40;53.70;;;18.47;54.65;101021.59;12250818;19;19926;-83
2023/10/12 11:56:43;;;;;;;;;;;19.40;53.70;;;18.50;54.83;101026.66;12262152;19;19922;-83
2023/10/12 12:00:48;;;;;;;;;;;19.40;53.70;;;18.51;54.90;101026.53;12253714;19;19960;-83
2023/10/12 12:04:51;;;;;;;;;;;19.40;53.60;;;18.60;54.90;101042.59;12234108;19;19934;-82
2023/10/12 12:08:59;;;;;;;;;;;19.40;53.60;;;18.53;54.83;101027.25;12240040;19;20025;-82
2023/10/12 12:13:04;;;;;;;;;;;19.40;53.60;;;18.58;54.71;101042.72;12232497;19;19947;-83
2023/10/12 12:17:05;;;;;;;;;;;19.40;53.60;;;18.56;55.02;101032.25;12233624;19;19927;-82
2023/10/12 12:21:16;;;;;;;;;;;19.40;53.50;;;18.59;54.69;101039.09;12247840;19;19919;-82
2023/10/12 12:25:30;;;;;;;;;;;19.50;53.60;;;18.62;54.84;101046.78;12255788;19;19910;-82
2023/10/12 12:29:32;;;;;;;;;;;19.40;53.60;;;18.63;54.57;101042.31;12252506;19;20337;-82
2023/10/12 12:33:36;;;;;;;;;;;19.50;53.70;;;18.65;55.03;101048.34;12255316;19;19927;-82
2023/10/12 12:37:38;;;;;;;;;;;19.50;53.70;;;18.61;54.66;101045.13;12254904;19;19958;-82
2023/10/12 12:41:39;;;;;;;;;;;19.50;53.70;;;18.67;54.92;101049.88;12252206;19;19933;-83
2023/10/12 12:45:41;;;;;;;;;;;19.50;53.60;;;18.56;54.91;101031.44;12252472;19;19983;-82
2023/10/12 12:49:42;;;;;;;;;;;19.50;53.60;;;18.65;55.01;101035.09;12251987;19;19987;-83
2023/10/12 12:53:46;;;;;;;;;;;19.50;53.50;;;18.64;54.68;101028.16;12259256;19;20029;-82
2023/10/12 12:57:47;;;;;;;;;;;19.60;53.60;;;18.67;54.79;101022.59;12255394;19;19955;-83
2023/10/12 13:01:49;;;;;;;;;;;19.60;53.50;;;18.69;54.68;101039.19;12256831;19;19922;-82
2023/10/12 13:05:51;;;;;;;;;;;19.60;53.50;;;18.65;54.98;101029.81;12254808;19;20348;-82
2023/10/12 13:09:53;;;;;;;;;;;19.60;53.60;;;18.66;54.67;101045.56;12252090;19;20362;-82
2023/10/12 13:13:55;;;;;;;;;;;19.60;53.60;;;18.75;55.00;101057.22;12252516;19;19957;-82
2023/10/12 13:17:57;;;;;;;;;;;19.60;53.60;;;18.76;55.10;101049.13;12255196;19;19914;-82
2023/10/12 13:21:59;;;;;;;;;;;19.70;53.70;;;18.67;55.08;101031.38;12251153;19;20243;-82
2023/10/12 13:26:08;;;;;;;;;;;19.60;53.60;;;18.82;54.81;101052.22;12251224;19;19918;-82
2023/10/12 13:30:10;;;;;;;;;;;19.70;53.70;;;18.82;55.09;101047.75;12251732;19;20274;-82
2023/10/12 13:34:13;;;;;;;;;;;19.70;53.60;;;18.86;54.81;101049.19;12252685;19;19922;-82
2023/10/12 13:38:16;;;;;;;;;;;19.70;53.60;;;18.69;55.07;101031.25;12253327;19;19978;-82
2023/10/12 13:42:17;;;;;;;;;;;19.80;53.60;;;18.81;55.21;101035.50;12249594;19;19915;-82
2023/10/12 13:46:20;;;;;;;;;;;19.80;53.50;;;18.91;55.05;101048.81;12252699;19;20585;-82
2023/10/12 13:50:22;;;;;;;;;;;19.80;53.50;;;18.89;55.07;101048.94;12246870;19;20271;-82
2023/10/12 13:54:25;;;;;;;;;;;19.80;53.50;;;18.84;54.97;101029.13;12255577;19;19923;-82
2023/10/12 13:58:26;;;;;;;;;;;19.80;53.60;;;18.88;55.19;101041.97;12252896;19;19927;-82
2023/10/12 14:02:27;;;;;;;;;;;19.80;53.40;;;18.93;54.75;101052.13;12253992;19;19915;-82
2023/10/12 14:06:29;;;;;;;;;;;19.80;53.50;;;18.94;54.95;101046.72;12252408;19;19918;-82
2023/10/12 14:10:31;;;;;;;;;;;19.80;53.50;;;18.95;54.96;101045.75;12254503;19;19922;-82
2023/10/12 14:14:33;;;;;;;;;;;19.80;53.60;;;18.98;54.79;101048.16;12254437;19;19921;-82
2023/10/12 14:18:34;;;;;;;;;;;19.90;53.60;;;19.00;55.12;101050.66;12254445;19;19915;-82
2023/10/12 14:22:36;;;;;;;;;;;19.90;53.60;;;19.01;54.95;101039.94;12252824;19;19923;-82
2023/10/12 14:26:38;;;;;;;;;;;19.90;53.60;;;19.04;55.03;101033.56;12248638;19;19926;-82
2023/10/12 14:30:40;;;;;;;;;;;19.90;53.60;;;19.00;55.20;101027.66;12250842;19;19922;-82
2023/10/12 14:34:41;;;;;;;;;;;19.90;53.60;;;18.99;54.91;101017.22;12249368;19;19952;-82
2023/10/12 14:38:44;;;;;;;;;;;19.90;53.50;;;18.98;55.18;101021.69;12246643;19;20070;-82
2023/10/12 14:42:46;;;;;;;;;;;19.90;53.50;;;19.06;55.22;101028.13;12249177;19;19919;-82
2023/10/12 14:46:50;;;;;;;;;;;19.90;53.80;;;19.05;54.84;101026.44;12248474;19;19930;-82
2023/10/12 14:51:12;;;;;;;;;;;19.90;53.40;;;19.03;54.77;101023.91;12246733;19;20368;-82
2023/10/12 14:55:13;;;;;;;;;;;19.90;53.40;;;19.00;55.05;101025.03;12248212;19;19907;-82
2023/10/12 14:59:15;;;;;;;;;;;20.00;53.50;;;18.85;54.76;100999.91;12246561;19;19924;-82
2023/10/12 15:03:17;;;;;;;;;;;20.00;53.50;;;19.04;54.97;101025.63;12244267;19;19922;-82
2023/10/12 15:07:18;;;;;;;;;;;20.00;53.50;;;19.06;54.79;101034.25;12245527;19;20459;-83
2023/10/12 15:11:20;;;;;;;;;;;19.90;53.40;;;19.01;54.82;101023.25;12243692;19;19922;-82
2023/10/12 15:15:30;;;;;;;;;;;19.90;53.40;;;19.04;54.76;101027.41;12242864;19;19937;-83
2023/10/12 15:19:32;;;;;;;;;;;19.90;53.40;;;19.04;54.98;101035.34;12240869;19;20265;-82
2023/10/12 15:23:34;;;;;;;;;;;19.90;53.40;;;19.00;55.14;101024.19;12245701;19;20358;-82
2023/10/12 15:27:37;;;;;;;;;;;19.90;53.40;;;18.98;54.89;101024.34;12246647;19;19941;-81
2023/10/12 15:31:39;;;;;;;;;;;19.90;53.50;;;19.01;55.05;101026.72;12249271;19;20262;-82
2023/10/12 15:35:44;;;;;;;;;;;19.90;53.50;;;18.95;54.90;101016.63;12247511;19;19914;-84
2023/10/12 15:39:48;;;;;;;;;;;19.90;53.40;;;18.97;55.21;101035.88;12235235;19;19930;-83
2023/10/12 15:43:51;;;;;;;;;;;19.80;53.30;;;18.93;54.85;101020.38;12243275;19;19922;-82
2023/10/12 15:47:57;;;;;;;;;;;19.80;53.40;;;18.95;54.96;101032.50;12247271;19;19943;-82
2023/10/12 15:52:00;;;;;;;;;;;19.80;53.40;;;18.91;55.17;101031.13;12258841;19;19919;-83
2023/10/12 15:56:03;;;;;;;;;;;19.80;53.40;;;18.94;55.08;101035.31;12258672;19;19915;-82
2023/10/12 16:00:08;;;;;;;;;;;19.80;53.40;;;18.94;54.76;101046.72;12255354;19;19939;-83
2023/10/12 16:04:09;;;;;;;;;;;19.80;53.50;;;18.93;54.90;101049.50;12255619;19;19946;-82
2023/10/12 16:08:13;;;;;;;;;;;19.80;53.50;;;18.91;54.93;101054.09;12256249;19;19947;-82
2023/10/12 16:12:18;;;;;;;;;;;19.80;53.50;;;18.85;54.78;101039.59;12256265;19;19935;-82
2023/10/12 16:16:20;;;;;;;;;;;19.80;53.50;;;18.87;55.03;101050.84;12256607;19;19926;-82
2023/10/12 16:20:22;;;;;;;;;;;19.70;53.40;;;18.86;54.85;101040.41;12252651;19;19957;-82
2023/10/12 16:24:24;;;;;;;;;;;19.70;53.50;;;18.78;54.77;101036.59;12254616;19;19918;-82
2023/10/12 16:28:25;;;;;;;;;;;19.70;53.50;;;18.82;54.98;101041.63;12254111;19;19926;-82
2023/10/12 16:32:26;;;;;;;;;;;19.70;53.60;;;18.80;55.19;101049.72;12256693;19;19931;-82
2023/10/12 16:36:28;;;;;;;;;;;19.70;53.60;;;18.81;55.05;101069.06;12256098;19;19956;-82
2023/10/12 16:40:29;;;;;;;;;;;19.60;53.50;;;18.73;54.80;101056.47;12251894;19;19923;-82
2023/10/12 16:44:31;;;;;;;;;;;19.60;53.60;;;18.76;55.03;101061.53;12255131;19;19918;-82
2023/10/12 16:48:32;;;;;;;;;;;19.60;53.60;;;18.72;55.04;101041.56;12253484;19;19919;-82
2023/10/12 16:52:34;;;;;;;;;;;19.60;53.60;;;18.63;55.21;101029.94;12248164;19;19915;-82
2023/10/12 16:56:37;;;;;;;;;;;19.60;53.60;;;18.71;55.01;101053.09;12254967;19;19907;-84
2023/10/12 17:00:38;;;;;;;;;;;19.50;53.60;;;18.70;54.95;101065.50;12249095;19;19915;-83
2023/10/12 17:04:51;;;;;;;;;;;19.50;53.70;;;18.63;55.26;101064.31;12251990;19;20358;-82
2023/10/12 17:08:53;;;;;;;;;;;19.50;53.60;;;18.64;54.91;101065.19;12249864;19;19919;-82
2023/10/12 17:12:55;;;;;;;;;;;19.50;53.70;;;18.58;55.19;101066.53;12253545;19;19926;-82
2023/10/12 17:16:57;;;;;;;;;;;19.50;53.70;;;18.61;54.95;101081.31;12253314;19;20357;-83
2023/10/12 17:20:58;;;;;;;;;;;19.40;53.60;;;18.56;55.05;101086.97;12250382;19;19927;-82
2023/10/12 17:25:00;;;;;;;;;;;19.40;53.60;;;18.48;55.09;101073.56;12252862;19;19969;-82
2023/10/12 17:29:03;;;;;;;;;;;19.30;53.70;;;18.47;55.12;101079.78;12249285;19;19930;-82
2023/10/12 17:33:04;;;;;;;;;;;19.30;53.70;;;18.48;55.22;101092.91;12247546;19;19915;-82
2023/10/12 17:37:06;;;;;;;;;;;19.30;53.70;;;18.40;54.91;101084.75;12247358;19;19923;-82
2023/10/12 17:41:09;;;;;;;;;;;19.30;53.80;;;18.48;55.01;101095.53;12244611;19;19919;-81
2023/10/12 17:45:14;;;;;;;;;;;19.20;53.80;;;18.47;55.05;101103.59;12248050;19;19915;-82
2023/10/12 17:49:17;;;;;;;;;;;19.20;53.80;;;18.36;54.92;101088.59;12248753;19;19922;-82
2023/10/12 17:53:18;;;;;;;;;;;19.30;53.80;;;18.35;55.05;101087.78;12250759;19;19978;-82
2023/10/12 17:57:20;;;;;;;;;;;19.30;53.90;;;18.33;55.04;101083.56;12248867;19;20009;-82
2023/10/12 18:01:22;;;;;;;;;;;19.20;53.90;;;18.46;55.20;101105.41;12246168;19;20284;-82
2023/10/12 18:05:27;;;;;;;;;;;19.20;53.90;;;18.46;55.06;101105.41;12250280;19;19929;-83
2023/10/12 18:09:28;;;;;;;;;;;19.30;53.90;;;18.46;55.01;101101.94;12240852;19;20668;-82
2023/10/12 18:13:34;;;;;;;;;;;19.30;53.90;;;18.42;55.26;101101.34;12249669;19;20318;-82
2023/10/12 18:17:35;;;;;;;;;;;19.30;53.90;;;18.45;55.21;101098.44;12245765;19;19943;-82
2023/10/12 18:21:37;;;;;;;;;;;19.30;53.90;;;18.44;55.16;101098.56;12249008;19;19926;-81
2023/10/12 18:25:38;;;;;;;;;;;19.30;53.90;;;18.42;55.27;101092.59;12249367;19;19915;-82
2023/10/12 18:29:41;;;;;;;;;;;19.20;53.90;;;18.42;55.16;101092.59;12246317;19;19918;-82
2023/10/12 18:33:44;;;;;;;;;;;19.20;53.80;;;18.40;55.10;101090.06;12249532;19;19931;-83
2023/10/12 18:37:45;;;;;;;;;;;19.20;53.90;;;18.39;55.30;101093.66;12247980;19;20370;-82
2023/10/12 18:41:47;;;;;;;;;;;19.20;53.90;;;18.31;55.11;101094.28;12243542;19;19924;-82
2023/10/12 18:45:58;;;;;;;;;;;19.20;53.90;;;18.25;54.99;101086.00;12243931;19;19923;-83
2023/10/12 18:50:01;;;;;;;;;;;19.20;53.90;;;18.19;55.37;101086.53;12240451;19;19911;-82
2023/10/12 18:54:04;;;;;;;;;;;19.20;53.90;;;18.29;55.23;101108.59;12241575;19;20358;-83
2023/10/12 18:58:06;;;;;;;;;;;19.10;53.90;;;18.28;55.30;101106.91;12246036;19;19934;-82
2023/10/12 19:02:07;;;;;;;;;;;19.20;54.00;;;18.29;55.20;101098.88;12241634;19;20179;-83
2023/10/12 19:06:10;;;;;;;;;;;19.20;54.10;;;18.26;55.17;101095.63;12247984;19;19923;-83
2023/10/12 19:10:13;;;;;;;;;;;19.10;54.00;;;18.23;55.06;101087.97;12246413;19;19925;-81
2023/10/12 19:14:14;;;;;;;;;;;19.00;53.90;;;18.14;55.40;101077.16;12247302;19;19921;-82
2023/10/12 19:18:16;;;;;;;;;;;19.10;54.00;;;18.10;55.25;101075.72;12247207;19;19922;-82
2023/10/12 19:22:17;;;;;;;;;;;19.00;54.00;;;18.13;55.20;101074.66;12242015;19;19922;-82
2023/10/12 19:26:19;;;;;;;;;;;19.00;54.00;;;18.08;55.16;101071.53;12247733;19;19915;-83
2023/10/12 19:30:20;;;;;;;;;;;19.00;54.10;;;18.13;55.18;101082.56;12245363;19;19926;-84
2023/10/12 19:34:25;;;;;;;;;;;19.00;54.10;;;18.15;55.18;101085.94;12244298;19;20365;-83
2023/10/12 19:38:27;;;;;;;;;;;18.90;54.10;;;18.16;55.49;101086.78;12247312;19;20411;-83
2023/10/12 19:42:28;;;;;;;;;;;19.00;54.20;;;18.12;55.37;101076.47;12244593;19;19923;-83
2023/10/12 19:46:30;;;;;;;;;;;19.00;54.20;;;18.04;55.21;101068.31;12244098;19;19953;-83